createdAt,value
2023-03-12T00:02:08.995Z,3.47
2023-03-12T00:04:36.556Z,3.42
2023-03-12T00:07:06.469Z,3.80
2023-03-12T00:09:37.617Z,3.30
2023-03-12T00:12:05.334Z,3.50
2023-03-12T00:14:32.407Z,3.50
2023-03-12T00:16:59.195Z,3.65
2023-03-12T00:19:26.131Z,3.75
2023-03-12T00:21:52.710Z,3.90
2023-03-12T00:24:19.362Z,4.40
2023-03-12T00:26:45.995Z,3.97
2023-03-12T00:29:12.736Z,4.25
2023-03-12T00:31:39.601Z,4.15
2023-03-12T00:34:06.311Z,4.25
2023-03-12T00:36:33.545Z,4.18
2023-03-12T00:39:01.422Z,4.43
2023-03-12T00:41:29.168Z,4.30
2023-03-12T00:43:56.120Z,4.25
2023-03-12T00:46:23.465Z,4.57
2023-03-12T00:48:50.637Z,4.40
2023-03-12T00:51:17.327Z,4.40
2023-03-12T00:53:44.140Z,4.20
2023-03-12T00:56:10.838Z,4.30
2023-03-12T00:58:37.494Z,4.75
2023-03-12T01:01:05.870Z,4.10
2023-03-12T01:03:32.515Z,4.53
2023-03-12T01:05:59.184Z,5.10
2023-03-12T01:08:25.879Z,4.90
2023-03-12T01:10:52.684Z,4.88
2023-03-12T01:13:19.712Z,5.22
2023-03-12T01:15:46.391Z,5.82
2023-03-12T01:18:13.647Z,5.40
2023-03-12T01:20:41.072Z,6.05
2023-03-12T01:23:08.330Z,5.82
2023-03-12T01:25:36.320Z,5.88
2023-03-12T01:28:03.569Z,5.85
2023-03-12T01:30:30.846Z,5.75
2023-03-12T01:32:57.893Z,5.30
2023-03-12T01:35:25.186Z,5.72
2023-03-12T01:37:53.063Z,5.93
2023-03-12T01:40:25.521Z,6.30
2023-03-12T01:42:55.900Z,6.68
2023-03-12T01:46:10.975Z,7.57
2023-03-12T01:48:45.774Z,8.90
2023-03-12T01:51:16.161Z,8.60
2023-03-12T01:53:47.152Z,7.18
2023-03-12T01:56:16.079Z,6.32
2023-03-12T01:58:48.169Z,6.82
2023-03-12T02:01:18.033Z,6.93
2023-03-12T02:03:48.194Z,6.38
2023-03-12T02:06:16.236Z,6.38
2023-03-12T02:08:45.709Z,7.53
2023-03-12T02:11:13.066Z,7.35
2023-03-12T02:13:40.943Z,6.57
2023-03-12T02:16:08.822Z,7.18
2023-03-12T02:18:36.056Z,6.78
2023-03-12T02:21:20.297Z,7.15
2023-03-12T02:23:57.261Z,7.13
2023-03-12T02:26:28.246Z,7.70
2023-03-12T02:28:59.599Z,7.22
2023-03-12T02:31:31.956Z,7.85
2023-03-12T02:34:00.709Z,7.10
2023-03-12T02:36:28.002Z,7.75
2023-03-12T02:38:55.707Z,8.00
2023-03-12T02:41:22.401Z,7.88
2023-03-12T02:43:57.183Z,8.40
2023-03-12T02:46:23.959Z,8.38
2023-03-12T02:48:51.411Z,8.80
2023-03-12T02:51:19.294Z,7.45
2023-03-12T02:53:46.629Z,7.72
2023-03-12T02:56:13.356Z,8.00
2023-03-12T02:58:40.128Z,7.90
2023-03-12T03:01:06.926Z,7.47
2023-03-12T03:03:33.546Z,8.98
2023-03-12T03:06:00.195Z,7.93
2023-03-12T03:08:27.263Z,7.25
2023-03-12T03:10:54.182Z,7.55
2023-03-12T03:13:20.979Z,8.50
2023-03-12T03:15:47.789Z,8.77
2023-03-12T03:18:14.500Z,9.45
2023-03-12T03:20:41.249Z,10.65
2023-03-12T03:23:07.878Z,11.13
2023-03-12T03:25:34.547Z,9.18
2023-03-12T03:28:01.469Z,8.93
2023-03-12T03:30:28.155Z,9.20
2023-03-12T03:32:54.983Z,9.55
2023-03-12T03:35:22.550Z,8.77
2023-03-12T03:37:49.612Z,8.85
2023-03-12T03:40:16.304Z,8.82
2023-03-12T03:42:43.348Z,8.55
2023-03-12T03:45:10.860Z,8.70
2023-03-12T03:47:39.445Z,8.95
2023-03-12T03:50:06.864Z,8.90
2023-03-12T03:52:34.070Z,9.27
2023-03-12T03:55:00.933Z,8.52
2023-03-12T03:57:28.414Z,8.65
2023-03-12T03:59:55.928Z,8.90
2023-03-12T04:02:22.661Z,8.32
2023-03-12T04:04:49.776Z,8.55
2023-03-12T04:07:16.811Z,9.20
2023-03-12T04:09:44.323Z,8.70
2023-03-12T04:12:11.018Z,9.63
2023-03-12T04:14:43.978Z,9.30
2023-03-12T04:17:11.349Z,9.38
2023-03-12T04:19:38.547Z,9.45
2023-03-12T04:22:05.954Z,9.80
2023-03-12T04:24:33.385Z,9.10
2023-03-12T04:27:00.053Z,9.48
2023-03-12T04:29:27.294Z,10.50
2023-03-12T04:31:54.833Z,9.52
2023-03-12T04:34:22.000Z,9.75
2023-03-12T04:36:51.175Z,9.63
2023-03-12T04:39:19.729Z,10.40
2023-03-12T04:41:49.412Z,10.80
2023-03-12T04:44:16.632Z,9.90
2023-03-12T04:46:44.234Z,10.63
2023-03-12T04:49:14.173Z,10.75
2023-03-12T04:51:42.500Z,10.90
2023-03-12T04:54:09.360Z,11.05
2023-03-12T04:56:37.555Z,10.55
2023-03-12T04:59:05.479Z,10.80
2023-03-12T05:01:34.839Z,11.00
2023-03-12T05:04:06.160Z,11.70
2023-03-12T05:06:33.691Z,10.90
2023-03-12T05:09:00.365Z,12.60
2023-03-12T05:11:27.453Z,13.38
2023-03-12T05:13:54.063Z,13.50
2023-03-12T05:16:23.131Z,13.95
2023-03-12T05:18:49.980Z,13.88
2023-03-12T05:21:19.846Z,14.40
2023-03-12T05:23:48.508Z,14.10
2023-03-12T05:26:19.987Z,14.13
2023-03-12T05:28:46.835Z,13.68
2023-03-12T05:31:14.644Z,14.13
2023-03-12T05:33:42.403Z,12.05
2023-03-12T05:36:10.620Z,12.00
2023-03-12T05:38:38.315Z,12.25
2023-03-12T05:41:06.725Z,11.73
2023-03-12T05:43:37.049Z,11.75
2023-03-12T05:46:05.260Z,11.98
2023-03-12T05:48:34.164Z,12.13
2023-03-12T05:51:02.157Z,11.50
2023-03-12T05:53:29.720Z,10.85
2023-03-12T05:56:03.116Z,11.20
2023-03-12T05:58:30.617Z,11.00
2023-03-12T06:00:57.369Z,10.75
2023-03-12T06:03:24.134Z,10.60
2023-03-12T06:05:55.052Z,10.50
2023-03-12T06:08:23.902Z,10.32
2023-03-12T06:10:53.279Z,10.18
2023-03-12T06:13:20.122Z,9.80
2023-03-12T06:15:46.832Z,9.60
2023-03-12T06:18:15.044Z,9.18
2023-03-12T06:20:42.616Z,9.25
2023-03-12T06:23:10.679Z,9.57
2023-03-12T06:25:37.606Z,9.55
2023-03-12T06:28:04.547Z,9.63
2023-03-12T06:30:32.047Z,9.05
2023-03-12T06:32:58.751Z,8.88
2023-03-12T06:35:25.448Z,9.02
2023-03-12T06:37:52.083Z,8.05
2023-03-12T06:40:18.770Z,8.40
2023-03-12T06:42:45.350Z,8.70
2023-03-12T06:45:12.110Z,7.80
2023-03-12T06:47:38.861Z,10.35
2023-03-12T06:50:05.698Z,8.93
2023-03-12T06:52:32.318Z,8.50
2023-03-12T06:54:58.918Z,8.50
2023-03-12T06:57:25.553Z,7.82
2023-03-12T06:59:52.249Z,8.32
2023-03-12T07:02:18.947Z,8.02
2023-03-12T07:04:45.636Z,7.90
2023-03-12T07:07:12.383Z,8.27
2023-03-12T07:09:39.078Z,7.97
2023-03-12T07:12:05.931Z,7.80
2023-03-12T07:14:32.552Z,7.90
2023-03-12T07:17:01.824Z,7.03
2023-03-12T07:19:30.356Z,7.38
2023-03-12T07:21:57.308Z,6.78
2023-03-12T07:24:24.101Z,7.35
2023-03-12T07:26:50.706Z,7.40
2023-03-12T07:29:17.348Z,7.13
2023-03-12T07:31:44.028Z,6.75
2023-03-12T07:34:10.795Z,6.80
2023-03-12T07:36:37.612Z,7.40
2023-03-12T07:39:04.653Z,6.75
2023-03-12T07:41:31.342Z,8.68
2023-03-12T07:43:58.140Z,8.13
2023-03-12T07:46:24.910Z,7.57
2023-03-12T07:48:51.600Z,6.40
2023-03-12T07:51:18.228Z,6.18
2023-03-12T07:53:44.863Z,6.95
2023-03-12T07:56:11.643Z,5.72
2023-03-12T07:58:39.346Z,5.95
2023-03-12T08:01:06.805Z,6.65
2023-03-12T08:03:34.105Z,5.95
2023-03-12T08:06:03.229Z,6.00
2023-03-12T08:08:31.648Z,5.65
2023-03-12T08:10:59.815Z,5.68
2023-03-12T08:13:27.432Z,5.75
2023-03-12T08:15:54.587Z,5.60
2023-03-12T08:18:22.229Z,5.88
2023-03-12T08:20:54.034Z,5.68
2023-03-12T08:23:22.028Z,5.88
2023-03-12T08:25:49.749Z,6.07
2023-03-12T08:28:17.719Z,5.93
2023-03-12T08:31:02.453Z,5.30
2023-03-12T08:33:29.300Z,5.68
2023-03-12T08:35:56.097Z,5.38
2023-03-12T08:52:11.792Z,7.45
2023-03-12T08:58:38.553Z,4.20
2023-03-12T09:01:41.798Z,5.00
2023-03-12T09:11:41.931Z,5.60
2023-03-12T09:17:23.600Z,4.15
2023-03-12T09:24:00.457Z,3.80
2023-03-12T09:50:14.453Z,3.65
2023-03-12T09:53:06.125Z,3.70
2023-03-12T09:55:39.861Z,3.60
2023-03-12T09:58:32.988Z,3.13
2023-03-12T10:01:07.892Z,3.38
2023-03-12T10:04:25.680Z,3.22
2023-03-12T10:07:09.945Z,3.38
2023-03-12T10:09:39.552Z,3.53
2023-03-12T10:12:21.322Z,3.75
2023-03-12T10:15:13.795Z,4.38
2023-03-12T10:17:43.227Z,4.30
2023-03-12T10:20:16.091Z,4.10
2023-03-12T10:22:49.107Z,4.38
2023-03-12T10:25:31.770Z,3.50
2023-03-12T10:28:05.299Z,4.05
2023-03-12T10:30:33.222Z,3.78
2023-03-12T10:33:04.470Z,3.85
2023-03-12T10:35:31.736Z,4.13
2023-03-12T10:38:01.376Z,4.47
2023-03-12T10:40:36.633Z,4.03
2023-03-12T10:43:06.911Z,4.30
2023-03-12T10:45:46.792Z,4.38
2023-03-12T10:48:20.840Z,4.60
2023-03-12T10:51:08.380Z,4.45
2023-03-12T10:53:48.027Z,4.80
2023-03-12T10:56:19.727Z,4.60
2023-03-12T10:58:54.224Z,4.40
2023-03-12T11:01:27.454Z,4.10
2023-03-12T11:04:13.631Z,4.05
2023-03-12T11:06:40.417Z,4.50
2023-03-12T11:09:16.744Z,4.47
2023-03-12T11:11:47.514Z,4.13
2023-03-12T11:14:21.918Z,4.47
2023-03-12T11:16:50.468Z,4.43
2023-03-12T11:19:28.039Z,5.00
2023-03-12T11:21:58.728Z,4.50
2023-03-12T11:24:25.793Z,4.53
2023-03-12T11:27:19.633Z,4.75
2023-03-12T11:29:50.476Z,4.75
2023-03-12T11:32:31.218Z,4.82
2023-03-12T11:34:58.130Z,4.90
2023-03-12T11:37:30.819Z,4.82
2023-03-12T11:40:16.849Z,4.63
2023-03-12T11:42:52.463Z,5.30
2023-03-12T11:45:40.268Z,4.80
2023-03-12T11:48:29.004Z,4.30
2023-03-12T11:51:30.895Z,3.90
2023-03-12T11:54:24.638Z,4.05
2023-03-12T11:57:00.625Z,3.60
2023-03-12T11:59:53.463Z,4.35
2023-03-12T12:02:44.565Z,5.00
2023-03-12T12:05:14.015Z,4.30
2023-03-12T12:07:52.950Z,4.18
2023-03-12T12:10:28.670Z,3.60
2023-03-12T12:13:08.262Z,3.55
2023-03-12T12:16:10.091Z,3.92
2023-03-12T12:19:06.025Z,3.10
2023-03-12T12:22:09.203Z,3.72
2023-03-12T12:24:47.639Z,3.75
2023-03-12T12:27:28.570Z,3.50
2023-03-12T12:30:10.189Z,3.60
2023-03-12T12:33:01.614Z,4.10
2023-03-12T12:35:34.289Z,3.95
2023-03-12T12:38:13.477Z,3.60
2023-03-12T12:40:54.656Z,3.40
2023-03-12T12:43:28.301Z,3.45
2023-03-12T12:45:59.372Z,3.47
2023-03-12T12:48:40.937Z,3.40
2023-03-12T12:51:09.431Z,3.30
2023-03-12T12:53:51.647Z,3.20
2023-03-12T12:56:50.533Z,3.20
2023-03-12T12:59:30.488Z,3.17
2023-03-12T13:01:58.224Z,3.28
2023-03-12T13:04:30.752Z,3.70
2023-03-12T13:07:00.204Z,3.78
2023-03-12T13:09:44.876Z,3.42
2023-03-12T13:12:25.275Z,3.38
2023-03-12T13:14:54.853Z,3.20
2023-03-12T13:17:31.550Z,2.90
2023-03-12T13:20:11.044Z,3.03
2023-03-12T13:22:37.670Z,2.90
2023-03-12T13:25:48.275Z,2.85
2023-03-12T13:29:11.365Z,2.95
2023-03-12T13:31:40.724Z,2.83
2023-03-12T13:34:19.385Z,3.10
2023-03-12T13:36:50.381Z,3.03
2023-03-12T13:39:17.190Z,2.92
2023-03-12T13:41:54.665Z,2.83
2023-03-12T13:44:26.876Z,3.00
2023-03-12T13:47:30.392Z,2.92
2023-03-12T13:50:01.520Z,3.38
2023-03-12T13:52:33.615Z,2.60
2023-03-12T13:55:25.169Z,2.55
2023-03-12T13:58:06.392Z,2.50
2023-03-12T14:00:41.649Z,2.80
2023-03-12T14:03:32.105Z,3.40
2023-03-12T14:06:07.893Z,2.72
2023-03-12T14:08:44.307Z,2.50
2023-03-12T14:11:29.874Z,2.67
2023-03-12T14:14:21.384Z,2.90
2023-03-12T14:16:52.257Z,2.67
2023-03-12T14:19:27.334Z,2.92
2023-03-12T14:21:56.982Z,2.80
2023-03-12T14:24:34.665Z,2.92
2023-03-12T14:27:04.794Z,2.90
2023-03-12T14:29:48.423Z,2.78
2023-03-12T14:32:28.406Z,2.58
2023-03-12T14:35:03.505Z,2.65
2023-03-12T14:37:40.322Z,2.50
2023-03-12T14:40:22.222Z,2.80
2023-03-12T14:42:48.871Z,2.65
2023-03-12T14:45:19.768Z,2.88
2023-03-12T14:47:48.935Z,2.80
2023-03-12T14:50:36.670Z,3.03
2023-03-12T14:53:13.351Z,3.05
2023-03-12T14:55:39.999Z,2.95
2023-03-12T14:58:16.471Z,3.75
2023-03-12T15:03:16.628Z,2.80
2023-03-12T15:05:52.079Z,3.00
2023-03-12T15:08:19.751Z,2.85
2023-03-12T15:10:57.094Z,2.97
2023-03-12T15:13:25.958Z,3.47
2023-03-12T15:15:54.956Z,3.00
2023-03-12T15:18:28.112Z,3.15
2023-03-12T15:20:57.331Z,3.10
2023-03-12T15:23:25.911Z,2.90
2023-03-12T15:26:17.972Z,3.08
2023-03-12T15:28:59.709Z,3.17
2023-03-12T15:31:27.258Z,2.83
2023-03-12T15:34:05.095Z,3.08
2023-03-12T15:36:35.572Z,3.25
2023-03-12T15:39:30.273Z,3.00
2023-03-12T15:42:10.621Z,3.30
2023-03-12T15:44:46.030Z,3.50
2023-03-12T15:47:15.948Z,3.25
2023-03-12T15:49:43.290Z,3.08
2023-03-12T15:52:18.987Z,2.72
2023-03-12T15:55:07.237Z,3.08
2023-03-12T15:57:35.048Z,3.22
2023-03-12T16:00:13.649Z,3.10
2023-03-12T16:02:40.318Z,3.10
2023-03-12T16:05:08.176Z,3.03
2023-03-12T16:07:34.842Z,3.28
2023-03-12T16:10:01.513Z,2.92
2023-03-12T16:12:28.169Z,8.30
2023-03-12T16:14:55.955Z,4.28
2023-03-12T16:17:23.430Z,3.60
2023-03-12T16:19:50.093Z,4.40
2023-03-12T16:22:17.670Z,3.88
2023-03-12T16:24:44.322Z,4.30
2023-03-12T16:27:18.017Z,3.47
2023-03-12T16:29:47.342Z,4.18
2023-03-12T16:32:16.375Z,4.07
2023-03-12T16:34:44.938Z,3.72
2023-03-12T16:37:13.350Z,4.25
2023-03-12T16:39:40.389Z,4.20
2023-03-12T16:42:15.170Z,4.35
2023-03-12T16:44:42.538Z,4.00
2023-03-12T16:47:13.601Z,4.35
2023-03-12T16:49:40.553Z,5.18
2023-03-12T16:52:22.249Z,4.88
2023-03-12T16:54:50.020Z,5.40
2023-03-12T16:57:35.417Z,5.97
2023-03-12T17:00:07.784Z,5.43
2023-03-12T17:02:38.641Z,4.53
2023-03-12T17:05:05.646Z,4.88
2023-03-12T17:07:32.330Z,5.03
2023-03-12T17:09:58.959Z,4.55
2023-03-12T17:12:37.479Z,4.55
2023-03-12T17:15:11.791Z,4.40
2023-03-12T17:17:38.480Z,4.10
2023-03-12T17:20:10.218Z,4.50
2023-03-12T17:22:37.135Z,4.88
2023-03-12T17:25:06.104Z,4.38
2023-03-12T17:27:33.110Z,3.85
2023-03-12T17:29:59.719Z,4.10
2023-03-12T17:32:26.427Z,3.80
2023-03-12T17:34:57.532Z,3.78
2023-03-12T17:37:24.209Z,4.10
2023-03-12T17:39:50.917Z,4.50
2023-03-12T17:42:17.722Z,4.07
2023-03-12T17:44:44.403Z,4.07
2023-03-12T17:47:11.036Z,4.38
2023-03-12T17:49:37.737Z,4.15
2023-03-12T17:52:04.445Z,4.32
2023-03-12T17:54:31.110Z,4.30
2023-03-12T17:56:57.725Z,4.03
2023-03-12T17:59:24.357Z,4.75
2023-03-12T18:01:51.139Z,6.00
2023-03-12T18:04:17.850Z,6.00
2023-03-12T18:06:44.705Z,5.72
2023-03-12T18:09:11.289Z,5.60
2023-03-12T18:11:37.903Z,5.90
2023-03-12T18:14:04.497Z,6.20
2023-03-12T18:16:31.239Z,6.82
2023-03-12T18:18:57.933Z,6.68
2023-03-12T18:21:25.104Z,7.15
2023-03-12T18:23:52.412Z,7.30
2023-03-12T18:26:19.095Z,7.35
2023-03-12T18:28:45.852Z,7.20
2023-03-12T18:31:12.865Z,7.93
2023-03-12T18:33:41.256Z,7.88
2023-03-12T18:36:08.399Z,8.60
2023-03-12T18:38:35.366Z,9.60
2023-03-12T18:41:06.099Z,10.82
2023-03-12T18:43:33.313Z,11.63
2023-03-12T18:46:00.048Z,12.02
2023-03-12T18:48:26.963Z,11.70
2023-03-12T18:50:53.959Z,12.57
2023-03-12T18:53:20.590Z,13.25
2023-03-12T18:55:55.368Z,13.25
2023-03-12T18:58:24.392Z,13.90
2023-03-12T19:00:55.108Z,13.95
2023-03-12T19:03:23.208Z,13.57
2023-03-12T19:06:07.388Z,14.52
2023-03-12T19:08:36.966Z,14.77
2023-03-12T19:11:12.161Z,15.57
2023-03-12T19:13:39.355Z,14.90
2023-03-12T19:16:08.760Z,16.00
2023-03-12T19:18:36.111Z,15.23
2023-03-12T19:21:03.081Z,16.90
2023-03-12T19:23:29.906Z,18.45
2023-03-12T19:25:56.526Z,18.50
2023-03-12T19:28:23.206Z,17.38
2023-03-12T19:30:49.858Z,18.42
2023-03-12T19:33:16.582Z,21.27
2023-03-12T19:35:43.408Z,21.42
2023-03-12T19:38:10.202Z,21.20
2023-03-12T19:40:36.872Z,22.58
2023-03-12T19:43:03.666Z,20.73
2023-03-12T19:45:30.313Z,21.35
2023-03-12T19:47:56.996Z,20.98
2023-03-12T19:50:24.067Z,22.10
2023-03-12T19:52:50.811Z,20.90
2023-03-12T19:55:17.730Z,21.35
2023-03-12T19:57:44.421Z,22.38
2023-03-12T20:00:12.274Z,23.63
2023-03-12T20:02:39.834Z,23.70
2023-03-12T20:05:07.484Z,22.83
2023-03-12T20:07:34.243Z,22.30
2023-03-12T20:10:00.954Z,22.20
2023-03-12T20:12:27.683Z,22.77
2023-03-12T20:14:54.324Z,23.08
2023-03-12T20:17:20.999Z,22.58
2023-03-12T20:19:47.591Z,23.08
2023-03-12T20:22:14.456Z,22.17
2023-03-12T20:24:41.317Z,22.73
2023-03-12T20:27:07.985Z,23.13
2023-03-12T20:29:34.887Z,23.40
2023-03-12T20:32:01.623Z,22.75
2023-03-12T20:34:28.288Z,23.48
2023-03-12T20:36:54.931Z,22.08
2023-03-12T20:39:21.531Z,21.48
2023-03-12T20:41:49.446Z,22.15
2023-03-12T20:44:16.905Z,22.67
2023-03-12T20:46:43.532Z,21.50
2023-03-12T20:49:10.652Z,22.15
2023-03-12T20:51:37.295Z,22.80
2023-03-12T20:54:04.113Z,23.20
2023-03-12T20:56:30.744Z,22.27
2023-03-12T20:58:59.260Z,22.63
2023-03-12T21:01:25.958Z,22.55
2023-03-12T21:03:52.609Z,20.67
2023-03-12T21:06:19.251Z,21.23
2023-03-12T21:08:46.810Z,20.48
2023-03-12T21:11:13.516Z,19.67
2023-03-12T21:13:40.142Z,20.27
2023-03-12T21:16:08.022Z,19.48
2023-03-12T21:18:34.987Z,18.92
2023-03-12T21:21:07.086Z,18.85
2023-03-12T21:23:34.455Z,18.40
2023-03-12T21:26:07.194Z,18.35
2023-03-12T21:28:35.309Z,17.27
2023-03-12T21:31:07.814Z,17.38
2023-03-12T21:33:34.629Z,16.98
2023-03-12T21:36:04.886Z,16.42
2023-03-12T21:38:31.621Z,15.98
2023-03-12T21:40:59.201Z,16.05
2023-03-12T21:43:29.140Z,16.05
2023-03-12T21:45:55.945Z,16.00
2023-03-12T21:48:22.570Z,14.50
2023-03-12T21:50:49.449Z,14.15
2023-03-12T21:53:23.593Z,14.07
2023-03-12T21:55:55.710Z,13.25
2023-03-12T21:58:22.362Z,13.65
2023-03-12T22:00:49.141Z,12.82
2023-03-12T22:03:16.076Z,13.25
2023-03-12T22:05:42.857Z,13.60
2023-03-12T22:08:09.507Z,13.07
2023-03-12T22:10:36.138Z,12.02
2023-03-12T22:13:02.795Z,12.50
2023-03-12T22:15:31.319Z,11.75
2023-03-12T22:17:57.966Z,11.82
2023-03-12T22:20:24.557Z,12.05
2023-03-12T22:22:51.190Z,12.32
2023-03-12T22:25:17.837Z,9.95
2023-03-12T22:27:44.459Z,11.98
2023-03-12T22:30:13.193Z,11.32
2023-03-12T22:32:40.092Z,11.52
2023-03-12T22:35:06.993Z,11.05
2023-03-12T22:37:33.644Z,11.68
2023-03-12T22:40:06.741Z,11.95
2023-03-12T22:42:33.936Z,11.20
2023-03-12T22:45:00.616Z,11.15
2023-03-12T22:47:27.177Z,11.15
2023-03-12T22:49:53.881Z,11.57
2023-03-12T22:52:20.469Z,11.48
2023-03-12T22:54:47.090Z,11.80
2023-03-12T22:57:13.678Z,12.55
2023-03-12T22:59:40.290Z,11.63
2023-03-12T23:02:07.014Z,11.85
2023-03-12T23:04:33.890Z,11.95
2023-03-12T23:07:13.383Z,11.73
2023-03-12T23:09:40.810Z,11.68
2023-03-12T23:12:07.864Z,11.70
2023-03-12T23:14:34.758Z,10.90
2023-03-12T23:17:01.546Z,10.45
2023-03-12T23:19:33.402Z,11.10
2023-03-12T23:22:00.108Z,11.85
2023-03-12T23:24:26.810Z,10.18
2023-03-12T23:26:55.435Z,10.10
2023-03-12T23:29:22.224Z,10.00
2023-03-12T23:31:48.979Z,9.60
2023-03-12T23:34:15.737Z,9.70
2023-03-12T23:36:42.897Z,9.07
2023-03-12T23:39:09.532Z,9.35
2023-03-12T23:41:37.690Z,9.05
2023-03-12T23:44:05.021Z,8.75
2023-03-12T23:46:31.789Z,7.90
2023-03-12T23:48:58.809Z,7.63
2023-03-12T23:51:31.444Z,7.95
2023-03-12T23:54:00.356Z,7.90
2023-03-12T23:56:32.841Z,7.03
2023-03-12T23:59:01.266Z,8.23
